Time;durP1;ratioP1;P1;durP2;ratioP2;P2;SDS_P1;SDS_P2;PMS_P1;PMS_P2;Temp;Humidity;BMP_temperature;BMP_pressure;BME280_temperature;BME280_humidity;BME280_pressure;Samples;Min_cycle;Max_cycle;Signal;HPM_P1;HPM_P2
2023/07/17 00:01:53;;;;;;;14.38;2.67;;;;;;;;;;4843192;29;20440;-88
2023/07/17 00:04:19;;;;;;;12.98;3.05;;;;;;;;;;4839155;29;20428;-88
2023/07/17 00:06:45;;;;;;;13.50;2.33;;;;;;;;;;4854135;29;20434;-89
2023/07/17 00:09:11;;;;;;;15.02;2.20;;;;;;;;;;4838533;29;20058;-89
2023/07/17 00:11:37;;;;;;;15.15;2.50;;;;;;;;;;4844130;29;20412;-89
2023/07/17 00:14:04;;;;;;;7.18;2.33;;;;;;;;;;4847021;29;20032;-89
2023/07/17 00:16:30;;;;;;;12.27;2.78;;;;;;;;;;4835650;29;20565;-88
2023/07/17 00:18:56;;;;;;;12.40;2.63;;;;;;;;;;4857596;29;20040;-88
2023/07/17 00:21:26;;;;;;;11.70;2.60;;;;;;;;;;4842977;29;20071;-88
2023/07/17 00:23:53;;;;;;;10.20;2.47;;;;;;;;;;4854513;29;20036;-89
2023/07/17 00:26:19;;;;;;;8.88;2.25;;;;;;;;;;4824519;29;20128;-89
2023/07/17 00:28:45;;;;;;;8.77;2.08;;;;;;;;;;4858719;29;20045;-88
2023/07/17 00:31:11;;;;;;;8.82;2.17;;;;;;;;;;4838260;29;20033;-88
2023/07/17 00:33:38;;;;;;;21.75;3.08;;;;;;;;;;4839287;29;20600;-89
2023/07/17 00:36:08;;;;;;;12.35;3.25;;;;;;;;;;4838829;29;20242;-88
2023/07/17 00:38:35;;;;;;;12.02;2.70;;;;;;;;;;4841578;29;20548;-89
2023/07/17 00:41:01;;;;;;;8.25;2.80;;;;;;;;;;4854979;29;20622;-89
2023/07/17 00:43:27;;;;;;;14.23;2.70;;;;;;;;;;4838807;29;20538;-90
2023/07/17 00:45:53;;;;;;;8.85;2.42;;;;;;;;;;4843599;29;20497;-89
2023/07/17 00:48:20;;;;;;;19.17;3.20;;;;;;;;;;4828339;29;20029;-88
2023/07/17 00:50:51;;;;;;;10.32;2.83;;;;;;;;;;4857629;29;20526;-88
2023/07/17 00:53:17;;;;;;;14.93;2.40;;;;;;;;;;4840832;29;20062;-89
2023/07/17 00:55:44;;;;;;;20.10;2.92;;;;;;;;;;4865785;29;20042;-88
2023/07/17 00:58:10;;;;;;;8.75;2.28;;;;;;;;;;4852025;29;20054;-89
2023/07/17 01:00:36;;;;;;;10.73;2.60;;;;;;;;;;4841081;29;20028;-88
2023/07/17 01:03:02;;;;;;;8.23;2.42;;;;;;;;;;4830601;29;20038;-89
2023/07/17 01:05:28;;;;;;;15.85;2.80;;;;;;;;;;4849766;29;20029;-88
2023/07/17 01:07:55;;;;;;;5.82;2.47;;;;;;;;;;4839122;29;20061;-88
2023/07/17 01:10:22;;;;;;;5.15;1.70;;;;;;;;;;4826326;29;20061;-89
2023/07/17 01:12:48;;;;;;;12.75;1.50;;;;;;;;;;4844145;29;20041;-89
2023/07/17 01:15:14;;;;;;;8.27;2.97;;;;;;;;;;4845956;29;20085;-89
2023/07/17 01:17:40;;;;;;;4.45;1.70;;;;;;;;;;4832252;29;20034;-89
2023/07/17 01:20:06;;;;;;;4.65;1.92;;;;;;;;;;4841526;29;20077;-89
2023/07/17 01:22:35;;;;;;;9.25;2.22;;;;;;;;;;4856811;29;20557;-89
2023/07/17 01:25:03;;;;;;;4.25;2.35;;;;;;;;;;4849067;29;20252;-88
2023/07/17 01:27:29;;;;;;;5.95;2.10;;;;;;;;;;4837903;29;20034;-88
2023/07/17 01:29:55;;;;;;;5.75;1.90;;;;;;;;;;4833952;29;20326;-88
2023/07/17 01:32:21;;;;;;;5.88;1.63;;;;;;;;;;4839541;29;20042;-89
2023/07/17 01:34:47;;;;;;;11.18;1.90;;;;;;;;;;4836885;29;20037;-88
2023/07/17 01:37:14;;;;;;;10.85;2.03;;;;;;;;;;4856823;29;20232;-89
2023/07/17 01:39:41;;;;;;;5.43;1.85;;;;;;;;;;4836761;29;20045;-89
2023/07/17 01:42:07;;;;;;;7.28;1.90;;;;;;;;;;4855117;29;20127;-89
2023/07/17 01:44:42;;;;;;;11.68;2.20;;;;;;;;;;4842147;29;20122;-88
2023/07/17 01:47:08;;;;;;;4.75;1.83;;;;;;;;;;4852637;29;20495;-89
2023/07/17 01:49:35;;;;;;;8.02;1.85;;;;;;;;;;4828849;29;20063;-88
2023/07/17 01:52:01;;;;;;;6.55;2.15;;;;;;;;;;4850502;29;20410;-88
2023/07/17 01:54:27;;;;;;;5.90;1.60;;;;;;;;;;4855417;29;20053;-89
2023/07/17 01:56:53;;;;;;;9.93;2.47;;;;;;;;;;4845123;29;20070;-88
2023/07/17 01:59:19;;;;;;;7.90;2.22;;;;;;;;;;4820833;29;20057;-88
2023/07/17 02:01:46;;;;;;;6.20;2.17;;;;;;;;;;4850525;29;20411;-88
2023/07/17 02:04:12;;;;;;;10.20;3.03;;;;;;;;;;4858116;29;20041;-89
2023/07/17 02:06:38;;;;;;;15.40;2.42;;;;;;;;;;4827981;29;20034;-89
2023/07/17 02:09:04;;;;;;;7.47;1.95;;;;;;;;;;4838535;29;20407;-89
2023/07/17 02:11:36;;;;;;;10.40;2.83;;;;;;;;;;4829570;29;20038;-88
2023/07/17 02:14:03;;;;;;;6.57;2.30;;;;;;;;;;4842711;29;20038;-89
2023/07/17 02:16:29;;;;;;;10.07;2.53;;;;;;;;;;4860234;29;20034;-89
2023/07/17 02:18:55;;;;;;;7.57;2.55;;;;;;;;;;4815519;29;20471;-89
2023/07/17 02:21:21;;;;;;;6.75;2.38;;;;;;;;;;4853150;29;20459;-88
2023/07/17 02:23:47;;;;;;;10.77;2.10;;;;;;;;;;4812355;29;20039;-89
2023/07/17 02:26:13;;;;;;;9.50;2.78;;;;;;;;;;4827340;29;20507;-88
2023/07/17 02:28:39;;;;;;;10.63;2.90;;;;;;;;;;4840848;29;20712;-90
2023/07/17 02:31:05;;;;;;;11.25;2.55;;;;;;;;;;4817192;29;20042;-87
2023/07/17 02:33:31;;;;;;;9.50;2.10;;;;;;;;;;4858797;29;20113;-87
2023/07/17 02:35:58;;;;;;;9.82;2.45;;;;;;;;;;4853543;29;20045;-86
2023/07/17 02:38:27;;;;;;;11.50;2.88;;;;;;;;;;4829612;29;20046;-88
2023/07/17 02:40:53;;;;;;;11.40;2.17;;;;;;;;;;4814374;29;20084;-87
2023/07/17 02:43:19;;;;;;;17.83;2.70;;;;;;;;;;4845295;29;20049;-87
2023/07/17 02:45:45;;;;;;;11.43;3.85;;;;;;;;;;4844469;29;20133;-87
2023/07/17 02:48:12;;;;;;;9.02;2.70;;;;;;;;;;4845992;29;20026;-88
2023/07/17 02:50:38;;;;;;;8.95;2.15;;;;;;;;;;4855619;29;20034;-89
2023/07/17 02:53:08;;;;;;;6.93;2.83;;;;;;;;;;4845981;29;20749;-89
2023/07/17 02:55:34;;;;;;;9.90;2.72;;;;;;;;;;4812242;29;20045;-88
2023/07/17 02:58:07;;;;;;;15.18;3.30;;;;;;;;;;4842903;29;20483;-88
2023/07/17 03:00:37;;;;;;;12.43;3.65;;;;;;;;;;4851908;29;20034;-89
2023/07/17 03:03:09;;;;;;;8.23;2.70;;;;;;;;;;4844446;29;20440;-87
2023/07/17 03:05:35;;;;;;;6.15;2.60;;;;;;;;;;4859901;29;20114;-87
2023/07/17 03:08:02;;;;;;;14.32;3.22;;;;;;;;;;4854913;29;20698;-87
2023/07/17 03:10:29;;;;;;;6.82;2.72;;;;;;;;;;4840878;29;20034;-87
2023/07/17 03:12:56;;;;;;;12.32;3.08;;;;;;;;;;4854315;29;20045;-88
2023/07/17 03:15:23;;;;;;;13.52;3.58;;;;;;;;;;4853365;29;20496;-87
2023/07/17 03:17:53;;;;;;;13.93;2.97;;;;;;;;;;4857874;29;20046;-88
2023/07/17 03:20:23;;;;;;;8.55;2.97;;;;;;;;;;4832116;29;20519;-88
2023/07/17 03:22:49;;;;;;;15.45;3.40;;;;;;;;;;4846227;29;20042;-88
2023/07/17 03:25:15;;;;;;;13.27;3.25;;;;;;;;;;4862422;29;20122;-89
2023/07/17 03:27:41;;;;;;;13.23;2.70;;;;;;;;;;4846585;29;20048;-88
2023/07/17 03:30:07;;;;;;;13.77;3.63;;;;;;;;;;4860636;29;20476;-87
2023/07/17 03:32:34;;;;;;;11.98;2.78;;;;;;;;;;4859328;29;20041;-86
2023/07/17 03:35:01;;;;;;;11.25;2.58;;;;;;;;;;4850863;29;20124;-89
2023/07/17 03:37:34;;;;;;;12.27;2.85;;;;;;;;;;4855437;29;20715;-88
2023/07/17 03:40:00;;;;;;;9.55;2.05;;;;;;;;;;4857839;29;20132;-88
2023/07/17 03:42:29;;;;;;;11.05;2.40;;;;;;;;;;4827795;29;20049;-88
2023/07/17 03:57:44;;;;;;;;;;;;;;;;;;5794284;22;10823921;-88
2023/07/17 04:00:27;;;;;;;4.47;1.90;;;;;;;;;;6227152;23;19907;-88
2023/07/17 04:02:53;;;;;;;11.48;3.33;;;;;;;;;;6206958;23;20016;-88
2023/07/17 04:05:19;;;;;;;13.77;2.92;;;;;;;;;;6230865;23;20022;-88
2023/07/17 04:07:48;;;;;;;9.85;2.00;;;;;;;;;;6205198;23;20012;-87
2023/07/17 04:10:14;;;;;;;12.15;3.03;;;;;;;;;;6206034;23;20012;-87
2023/07/17 04:12:40;;;;;;;10.98;3.20;;;;;;;;;;6206091;23;20015;-87
2023/07/17 04:15:07;;;;;;;10.65;2.53;;;;;;;;;;6231463;23;20430;-86
2023/07/17 04:17:33;;;;;;;11.52;2.88;;;;;;;;;;6206526;23;20072;-86
2023/07/17 04:19:59;;;;;;;6.40;1.63;;;;;;;;;;6205266;23;20015;-87
2023/07/17 04:22:25;;;;;;;7.53;2.47;;;;;;;;;;6230410;23;20008;-86
2023/07/17 04:24:51;;;;;;;13.32;2.88;;;;;;;;;;6205339;23;20493;-87
2023/07/17 04:27:17;;;;;;;6.78;2.83;;;;;;;;;;6206964;23;20008;-87
2023/07/17 04:29:44;;;;;;;13.48;2.65;;;;;;;;;;6229637;23;20039;-87
2023/07/17 04:32:11;;;;;;;6.32;1.98;;;;;;;;;;6205680;23;20012;-87
2023/07/17 04:34:40;;;;;;;9.18;2.25;;;;;;;;;;6206663;23;20105;-88
2023/07/17 04:37:06;;;;;;;7.82;2.72;;;;;;;;;;6231923;23;20468;-88
2023/07/17 04:39:32;;;;;;;12.38;3.00;;;;;;;;;;6206701;23;20014;-87
2023/07/17 04:41:59;;;;;;;9.85;2.53;;;;;;;;;;6205514;23;20015;-87
2023/07/17 04:44:25;;;;;;;12.07;2.72;;;;;;;;;;6204759;23;20454;-87
2023/07/17 04:46:51;;;;;;;7.80;2.83;;;;;;;;;;6205971;23;20012;-88
2023/07/17 04:49:17;;;;;;;10.93;3.55;;;;;;;;;;6205219;23;20058;-88
2023/07/17 04:51:44;;;;;;;15.40;2.83;;;;;;;;;;6205076;23;20043;-86
2023/07/17 04:54:10;;;;;;;7.22;2.20;;;;;;;;;;6203068;23;20474;-87
2023/07/17 04:56:43;;;;;;;8.10;3.55;;;;;;;;;;6222953;22;20351;-85
2023/07/17 04:59:16;;;;;;;7.78;2.30;;;;;;;;;;6193003;23;20035;-89
2023/07/17 05:01:43;;;;;;;11.65;2.63;;;;;;;;;;6168791;23;20755;-89
2023/07/17 05:04:10;;;;;;;11.02;3.00;;;;;;;;;;6170141;23;20099;-88
2023/07/17 05:06:45;;;;;;;6.15;2.72;;;;;;;;;;6170787;23;20009;-88
2023/07/17 05:09:12;;;;;;;15.40;2.90;;;;;;;;;;6170608;23;20064;-89
2023/07/17 05:11:46;;;;;;;10.63;2.17;;;;;;;;;;6173068;23;20004;-88
2023/07/17 05:14:17;;;;;;;12.60;2.50;;;;;;;;;;6170775;23;20013;-88
2023/07/17 05:16:44;;;;;;;8.48;1.95;;;;;;;;;;6189644;23;20095;-88
2023/07/17 05:19:10;;;;;;;14.00;2.88;;;;;;;;;;6188053;23;20461;-88
2023/07/17 05:21:53;;;;;;;8.40;2.25;;;;;;;;;;6191368;23;20035;-89
2023/07/17 05:24:24;;;;;;;12.85;3.33;;;;;;;;;;6171768;23;20017;-89
2023/07/17 05:26:50;;;;;;;9.35;3.53;;;;;;;;;;6169909;23;20297;-88
2023/07/17 05:29:17;;;;;;;10.93;3.10;;;;;;;;;;6168682;23;20462;-89
2023/07/17 05:31:43;;;;;;;7.05;2.70;;;;;;;;;;6194155;23;20071;-88
2023/07/17 05:34:09;;;;;;;14.25;2.72;;;;;;;;;;6193959;23;20005;-88
2023/07/17 05:36:36;;;;;;;6.43;1.88;;;;;;;;;;6170697;23;20016;-88
2023/07/17 05:39:03;;;;;;;5.13;2.10;;;;;;;;;;6191703;23;20467;-88
2023/07/17 05:41:32;;;;;;;9.63;2.35;;;;;;;;;;6190758;23;20023;-89
2023/07/17 05:43:59;;;;;;;11.77;2.35;;;;;;;;;;6167599;23;20020;-89
2023/07/17 05:46:25;;;;;;;11.95;2.70;;;;;;;;;;6191203;23;20039;-88
2023/07/17 05:48:51;;;;;;;11.13;2.95;;;;;;;;;;6190407;23;20009;-87
2023/07/17 05:51:28;;;;;;;5.85;2.80;;;;;;;;;;6165577;23;20005;-88
2023/07/17 05:53:54;;;;;;;12.10;3.03;;;;;;;;;;6165548;23;20083;-88
2023/07/17 05:56:23;;;;;;;8.18;2.60;;;;;;;;;;6172420;22;20024;-87
2023/07/17 05:58:51;;;;;;;8.05;2.65;;;;;;;;;;6195190;23;20016;-89
2023/07/17 06:01:17;;;;;;;12.68;2.92;;;;;;;;;;6193632;23;20008;-88
2023/07/17 06:03:43;;;;;;;14.38;3.60;;;;;;;;;;6219281;23;20339;-88
2023/07/17 06:06:12;;;;;;;12.65;3.25;;;;;;;;;;6192899;23;20062;-86
2023/07/17 06:08:39;;;;;;;14.07;3.42;;;;;;;;;;6219588;23;20008;-88
2023/07/17 06:11:05;;;;;;;8.93;2.70;;;;;;;;;;6194486;23;20016;-88
2023/07/17 06:13:31;;;;;;;16.17;3.95;;;;;;;;;;6194864;23;20114;-89
2023/07/17 06:15:57;;;;;;;9.05;2.67;;;;;;;;;;6247203;23;20011;-89
2023/07/17 06:18:23;;;;;;;17.88;3.45;;;;;;;;;;6219033;23;20019;-88
2023/07/17 06:20:49;;;;;;;11.90;2.90;;;;;;;;;;6192865;23;20022;-88
2023/07/17 06:23:15;;;;;;;20.67;3.75;;;;;;;;;;6220666;23;20070;-89
2023/07/17 06:25:41;;;;;;;13.05;3.42;;;;;;;;;;6195233;23;20008;-88
2023/07/17 06:28:08;;;;;;;13.00;2.95;;;;;;;;;;6220082;23;20075;-89
2023/07/17 06:30:38;;;;;;;17.17;3.53;;;;;;;;;;6219277;23;20004;-88
2023/07/17 06:33:04;;;;;;;24.55;4.60;;;;;;;;;;6196800;23;20019;-88
2023/07/17 06:35:30;;;;;;;12.65;4.25;;;;;;;;;;6218738;23;20020;-89
2023/07/17 06:37:56;;;;;;;21.42;3.72;;;;;;;;;;6195826;23;20354;-89
2023/07/17 06:40:22;;;;;;;22.45;3.88;;;;;;;;;;6194722;23;20099;-88
2023/07/17 06:42:48;;;;;;;9.02;3.63;;;;;;;;;;6195444;23;20081;-88
2023/07/17 06:45:16;;;;;;;10.68;3.35;;;;;;;;;;6194196;23;20059;-89
2023/07/17 06:47:43;;;;;;;17.92;4.53;;;;;;;;;;6195503;23;20008;-89
2023/07/17 06:50:13;;;;;;;13.90;4.18;;;;;;;;;;6194417;23;20012;-87
2023/07/17 06:52:41;;;;;;;20.88;3.05;;;;;;;;;;6195061;23;20336;-89
2023/07/17 06:55:09;;;;;;;19.40;4.60;;;;;;;;;;6196232;23;20004;-89
2023/07/17 06:57:35;;;;;;;18.88;3.47;;;;;;;;;;6203830;22;20055;-89
2023/07/17 07:00:05;;;;;;;14.70;3.33;;;;;;;;;;6164703;23;20012;-87
2023/07/17 07:02:32;;;;;;;12.45;3.63;;;;;;;;;;6165278;23;20013;-88
2023/07/17 07:05:01;;;;;;;18.35;5.10;;;;;;;;;;6190424;23;20063;-88
2023/07/17 07:07:27;;;;;;;11.13;3.10;;;;;;;;;;6190519;23;20040;-89
2023/07/17 07:09:54;;;;;;;8.43;3.30;;;;;;;;;;6165399;23;20005;-89
2023/07/17 07:12:21;;;;;;;10.75;4.43;;;;;;;;;;6168511;23;20027;-88
2023/07/17 07:14:47;;;;;;;9.70;3.80;;;;;;;;;;6165403;23;20457;-89
2023/07/17 07:17:13;;;;;;;16.92;4.68;;;;;;;;;;6187095;23;20040;-89
2023/07/17 07:19:40;;;;;;;11.07;3.63;;;;;;;;;;6189768;23;20004;-89
2023/07/17 07:22:16;;;;;;;17.77;4.28;;;;;;;;;;6165131;23;20004;-89
2023/07/17 07:24:46;;;;;;;11.20;3.88;;;;;;;;;;6190645;23;20005;-89
2023/07/17 07:27:13;;;;;;;13.40;3.97;;;;;;;;;;6164479;23;20123;-88
2023/07/17 07:29:42;;;;;;;11.73;3.45;;;;;;;;;;6165853;23;20351;-89
2023/07/17 07:32:10;;;;;;;11.90;4.00;;;;;;;;;;6216489;23;20178;-89
2023/07/17 07:34:36;;;;;;;9.20;3.15;;;;;;;;;;6164136;23;20477;-89
2023/07/17 07:37:03;;;;;;;21.17;3.63;;;;;;;;;;6163624;23;20016;-89
2023/07/17 07:39:29;;;;;;;8.45;2.95;;;;;;;;;;6164450;23;20316;-89
2023/07/17 07:41:55;;;;;;;9.55;2.85;;;;;;;;;;6167354;23;20021;-88
2023/07/17 07:44:22;;;;;;;10.15;2.95;;;;;;;;;;6189626;23;20009;-88
2023/07/17 07:46:48;;;;;;;14.35;4.28;;;;;;;;;;6191530;23;20016;-88
2023/07/17 07:49:22;;;;;;;10.32;3.50;;;;;;;;;;6164958;23;20021;-88
2023/07/17 07:51:48;;;;;;;17.00;4.15;;;;;;;;;;6170917;23;20009;-88
2023/07/17 07:54:14;;;;;;;10.35;3.55;;;;;;;;;;6167716;23;20025;-89
2023/07/17 07:56:40;;;;;;;11.45;3.53;;;;;;;;;;6171335;22;20024;-88
2023/07/17 07:59:12;;;;;;;10.38;3.92;;;;;;;;;;6165050;23;20084;-88
2023/07/17 08:01:38;;;;;;;11.95;3.13;;;;;;;;;;6190918;23;20023;-88
2023/07/17 08:04:08;;;;;;;10.30;2.78;;;;;;;;;;6190764;23;20009;-89
2023/07/17 08:06:35;;;;;;;8.82;2.53;;;;;;;;;;6166924;23;20439;-89
2023/07/17 08:09:01;;;;;;;9.95;3.22;;;;;;;;;;6162512;23;20008;-89
2023/07/17 08:11:28;;;;;;;8.55;3.60;;;;;;;;;;6136069;23;20091;-89
2023/07/17 08:13:54;;;;;;;15.90;3.75;;;;;;;;;;6190355;23;20000;-88
2023/07/17 08:16:22;;;;;;;6.95;3.05;;;;;;;;;;6171223;23;20001;-86
2023/07/17 08:18:48;;;;;;;11.95;4.25;;;;;;;;;;6193707;23;20120;-89
2023/07/17 08:21:14;;;;;;;13.05;3.72;;;;;;;;;;6168634;23;20020;-88
2023/07/17 08:23:41;;;;;;;12.52;3.10;;;;;;;;;;6171646;23;20012;-88
2023/07/17 08:26:10;;;;;;;8.98;3.00;;;;;;;;;;6168479;23;20039;-88
2023/07/17 08:28:36;;;;;;;9.15;3.30;;;;;;;;;;6193283;23;20013;-87
2023/07/17 08:31:03;;;;;;;12.15;3.40;;;;;;;;;;6191652;23;20009;-88
2023/07/17 08:33:35;;;;;;;15.27;3.10;;;;;;;;;;6194825;23;20004;-88
2023/07/17 08:36:01;;;;;;;3.25;1.50;;;;;;;;;;6192789;23;20008;-88
2023/07/17 08:38:27;;;;;;;12.40;3.85;;;;;;;;;;6165775;23;20397;-89
2023/07/17 08:40:54;;;;;;;11.30;3.00;;;;;;;;;;6163470;23;20070;-89
2023/07/17 08:43:21;;;;;;;7.10;2.70;;;;;;;;;;6186836;23;20058;-88
2023/07/17 08:45:47;;;;;;;7.55;2.67;;;;;;;;;;6186813;23;20072;-87
2023/07/17 08:48:14;;;;;;;10.15;3.05;;;;;;;;;;6162433;23;20038;-89
2023/07/17 08:50:41;;;;;;;9.95;2.50;;;;;;;;;;6161134;23;20062;-88
2023/07/17 08:53:08;;;;;;;10.85;3.38;;;;;;;;;;6186481;23;20001;-89
2023/07/17 08:55:36;;;;;;;10.45;3.50;;;;;;;;;;6186044;23;20012;-88
2023/07/17 08:58:03;;;;;;;10.07;3.53;;;;;;;;;;6190649;22;20016;-89
2023/07/17 09:00:32;;;;;;;10.48;3.17;;;;;;;;;;6185344;23;20088;-88
2023/07/17 09:02:59;;;;;;;12.85;3.08;;;;;;;;;;6191476;23;20016;-89
2023/07/17 09:05:26;;;;;;;8.93;2.78;;;;;;;;;;6167174;23;20103;-88
2023/07/17 09:07:52;;;;;;;9.02;3.22;;;;;;;;;;6191995;23;20004;-89
2023/07/17 09:10:21;;;;;;;12.15;3.10;;;;;;;;;;6169531;23;20013;-89
2023/07/17 09:12:58;;;;;;;5.20;2.08;;;;;;;;;;6186175;23;20004;-89
2023/07/17 09:15:25;;;;;;;7.32;2.78;;;;;;;;;;6183180;23;20009;-89
2023/07/17 09:17:54;;;;;;;3.47;1.73;;;;;;;;;;6182839;23;20004;-89
2023/07/17 09:20:20;;;;;;;10.48;2.58;;;;;;;;;;6158606;23;20391;-89
2023/07/17 09:22:47;;;;;;;7.50;2.63;;;;;;;;;;6184744;23;20009;-89
2023/07/17 09:25:14;;;;;;;12.15;2.58;;;;;;;;;;6183002;23;20087;-89
2023/07/17 09:27:47;;;;;;;9.70;3.55;;;;;;;;;;6185792;23;20005;-88
2023/07/17 09:30:18;;;;;;;5.97;2.45;;;;;;;;;;6185286;23;20067;-89
2023/07/17 09:32:45;;;;;;;11.05;2.70;;;;;;;;;;6211100;23;20171;-89
2023/07/17 09:35:11;;;;;;;7.90;2.15;;;;;;;;;;6160099;23;20439;-89
2023/07/17 09:37:38;;;;;;;8.27;2.80;;;;;;;;;;6159184;23;20528;-89
2023/07/17 09:40:07;;;;;;;5.95;2.33;;;;;;;;;;6183833;23;20001;-89
2023/07/17 09:42:34;;;;;;;11.48;2.45;;;;;;;;;;6159752;23;20015;-88
2023/07/17 09:45:00;;;;;;;10.50;2.10;;;;;;;;;;6160027;23;20012;-89
2023/07/17 09:47:27;;;;;;;11.02;2.47;;;;;;;;;;6160497;23;20059;-89
2023/07/17 09:49:54;;;;;;;4.97;2.45;;;;;;;;;;6186681;23;20058;-89
2023/07/17 09:52:20;;;;;;;10.70;2.30;;;;;;;;;;6215744;23;20202;-90
2023/07/17 09:54:53;;;;;;;5.65;2.45;;;;;;;;;;6165214;23;20035;-88
2023/07/17 09:57:26;;;;;;;7.95;2.65;;;;;;;;;;6191346;22;20190;-88
2023/07/17 09:59:55;;;;;;;8.43;1.80;;;;;;;;;;6216074;23;19997;-88
2023/07/17 10:02:22;;;;;;;5.53;2.50;;;;;;;;;;6191628;23;20323;-91
2023/07/17 10:04:57;;;;;;;10.13;2.28;;;;;;;;;;6190613;23;20012;-89
2023/07/17 10:07:27;;;;;;;5.68;1.55;;;;;;;;;;6219431;23;20004;-89
2023/07/17 10:09:53;;;;;;;12.07;2.38;;;;;;;;;;6190930;23;20004;-90
2023/07/17 10:12:20;;;;;;;5.80;2.20;;;;;;;;;;6191972;23;20243;-89
2023/07/17 10:14:48;;;;;;;11.70;2.33;;;;;;;;;;6190460;23;20028;-90
2023/07/17 10:17:40;;;;;;;6.03;2.13;;;;;;;;;;6215093;23;20575;-90
2023/07/17 10:20:08;;;;;;;5.07;2.05;;;;;;;;;;6182733;23;20013;-89
2023/07/17 10:22:43;;;;;;;9.50;2.50;;;;;;;;;;6189292;23;20091;-89
2023/07/17 10:25:19;;;;;;;4.50;2.08;;;;;;;;;;6215782;23;20269;-89
2023/07/17 10:27:52;;;;;;;9.43;2.20;;;;;;;;;;6189612;23;20016;-89
2023/07/17 10:30:23;;;;;;;3.80;2.22;;;;;;;;;;6188736;23;20485;-88
2023/07/17 10:32:51;;;;;;;6.63;1.90;;;;;;;;;;6188566;23;20421;-88
2023/07/17 10:35:21;;;;;;;5.32;2.60;;;;;;;;;;6184063;23;20008;-88
2023/07/17 10:37:47;;;;;;;6.22;2.33;;;;;;;;;;6157496;23;20012;-89
2023/07/17 10:40:27;;;;;;;5.22;1.80;;;;;;;;;;6180873;23;20012;-89
2023/07/17 10:42:58;;;;;;;9.57;2.17;;;;;;;;;;6181721;23;20385;-88
2023/07/17 10:45:34;;;;;;;8.73;2.13;;;;;;;;;;6182307;23;20058;-89
2023/07/17 10:48:01;;;;;;;4.15;1.70;;;;;;;;;;6181522;23;20084;-89
2023/07/17 10:50:27;;;;;;;7.45;2.30;;;;;;;;;;6155892;23;20064;-89
2023/07/17 10:52:53;;;;;;;8.63;2.25;;;;;;;;;;6158905;23;20593;-88
2023/07/17 10:55:28;;;;;;;8.63;2.50;;;;;;;;;;6156183;23;20024;-88
2023/07/17 10:58:01;;;;;;;8.90;2.15;;;;;;;;;;6200938;22;20094;-88
2023/07/17 11:00:28;;;;;;;6.47;2.25;;;;;;;;;;6182322;23;20015;-89
2023/07/17 11:03:01;;;;;;;6.85;1.98;;;;;;;;;;6184145;23;20378;-89
2023/07/17 11:05:27;;;;;;;4.75;1.95;;;;;;;;;;6182555;23;20398;-88
2023/07/17 11:07:57;;;;;;;5.00;2.28;;;;;;;;;;6185188;23;20124;-89
2023/07/17 11:10:24;;;;;;;4.13;2.03;;;;;;;;;;6182967;23;20001;-88
2023/07/17 11:12:50;;;;;;;3.22;1.63;;;;;;;;;;6159598;23;20009;-88
2023/07/17 11:15:17;;;;;;;5.45;1.80;;;;;;;;;;6159667;23;20103;-89
2023/07/17 11:17:43;;;;;;;5.80;1.80;;;;;;;;;;6208614;23;20123;-89
2023/07/17 11:20:09;;;;;;;7.07;2.17;;;;;;;;;;6184219;23;20104;-89
2023/07/17 11:22:37;;;;;;;5.45;2.22;;;;;;;;;;6182527;23;20405;-89
2023/07/17 11:25:03;;;;;;;5.65;2.13;;;;;;;;;;6182507;23;20008;-89
2023/07/17 11:27:32;;;;;;;2.88;2.20;;;;;;;;;;6181774;23;20105;-89
2023/07/17 11:29:59;;;;;;;5.38;1.88;;;;;;;;;;6158095;23;20016;-89
2023/07/17 11:32:27;;;;;;;9.48;1.92;;;;;;;;;;6157879;23;20024;-89
2023/07/17 11:34:54;;;;;;;5.00;2.10;;;;;;;;;;6182568;23;20482;-89
2023/07/17 11:37:34;;;;;;;3.60;1.95;;;;;;;;;;6183364;23;20012;-89
2023/07/17 11:40:08;;;;;;;4.80;2.00;;;;;;;;;;6209553;23;20465;-88
2023/07/17 11:42:53;;;;;;;9.15;2.30;;;;;;;;;;6183380;23;20312;-89
2023/07/17 11:45:37;;;;;;;7.88;2.17;;;;;;;;;;6182901;23;20015;-89
2023/07/17 11:48:04;;;;;;;7.53;2.15;;;;;;;;;;6184133;23;20013;-89
2023/07/17 11:50:32;;;;;;;6.13;2.38;;;;;;;;;;6164815;23;20011;-89
2023/07/17 11:53:16;;;;;;;5.07;2.00;;;;;;;;;;6165735;23;20016;-89
2023/07/17 11:55:44;;;;;;;5.28;1.88;;;;;;;;;;6159912;23;20013;-89
2023/07/17 11:58:29;;;;;;;2.58;1.83;;;;;;;;;;6202633;22;20035;-89
2023/07/17 12:01:01;;;;;;;5.80;1.73;;;;;;;;;;6197401;22;20013;-89
2023/07/17 12:03:27;;;;;;;3.92;2.17;;;;;;;;;;6213819;23;20466;-90
2023/07/17 12:05:53;;;;;;;5.47;1.90;;;;;;;;;;6161415;23;20012;-89
2023/07/17 12:08:22;;;;;;;5.68;2.55;;;;;;;;;;6164622;23;20019;-89
2023/07/17 12:10:48;;;;;;;10.40;2.42;;;;;;;;;;6190001;23;20016;-89
2023/07/17 12:13:20;;;;;;;5.43;2.20;;;;;;;;;;6163039;23;20005;-89
2023/07/17 12:15:46;;;;;;;6.30;2.03;;;;;;;;;;6164747;23;20012;-89
2023/07/17 12:18:13;;;;;;;9.27;1.98;;;;;;;;;;6163260;23;20450;-88
2023/07/17 12:20:39;;;;;;;5.47;2.67;;;;;;;;;;6189232;23;20443;-89
2023/07/17 12:23:08;;;;;;;6.57;2.42;;;;;;;;;;6189426;23;20035;-89
2023/07/17 12:25:35;;;;;;;11.43;2.85;;;;;;;;;;6165586;23;20039;-89
2023/07/17 12:28:01;;;;;;;6.45;2.08;;;;;;;;;;6164412;23;20012;-89
2023/07/17 12:30:29;;;;;;;6.07;1.90;;;;;;;;;;6163586;23;20020;-89
2023/07/17 12:32:55;;;;;;;7.78;2.63;;;;;;;;;;6214016;23;20008;-89
2023/07/17 12:35:21;;;;;;;7.28;2.10;;;;;;;;;;6161892;23;20024;-89
2023/07/17 12:37:47;;;;;;;6.43;1.95;;;;;;;;;;6163314;23;20013;-89
2023/07/17 12:40:14;;;;;;;5.30;2.25;;;;;;;;;;6163269;23;20505;-88
2023/07/17 12:42:40;;;;;;;3.97;2.08;;;;;;;;;;6189211;23;20040;-89
2023/07/17 12:45:07;;;;;;;11.18;2.95;;;;;;;;;;6165110;23;20557;-89
2023/07/17 12:47:33;;;;;;;5.00;1.80;;;;;;;;;;6189998;23;20063;-88
2023/07/17 12:49:59;;;;;;;5.78;1.90;;;;;;;;;;6186737;23;20008;-89
2023/07/17 12:52:26;;;;;;;6.95;2.15;;;;;;;;;;6166393;23;20558;-89
2023/07/17 12:54:52;;;;;;;8.70;3.08;;;;;;;;;;6163570;23;20190;-87
2023/07/17 12:57:18;;;;;;;6.57;2.10;;;;;;;;;;6186775;23;20420;-87
2023/07/17 12:59:45;;;;;;;4.05;1.85;;;;;;;;;;6192503;22;20024;-88
2023/07/17 13:02:11;;;;;;;7.53;2.10;;;;;;;;;;6190214;23;20059;-88
2023/07/17 13:04:37;;;;;;;4.63;1.92;;;;;;;;;;6163105;23;20155;-89
2023/07/17 13:07:03;;;;;;;5.70;1.98;;;;;;;;;;6164892;23;20543;-88
2023/07/17 13:09:30;;;;;;;5.28;1.95;;;;;;;;;;6164551;23;20012;-88
2023/07/17 13:11:56;;;;;;;4.00;1.65;;;;;;;;;;6187431;23;20008;-88
2023/07/17 13:14:26;;;;;;;4.65;2.58;;;;;;;;;;6165274;23;20066;-89
2023/07/17 13:16:58;;;;;;;6.68;2.38;;;;;;;;;;6189799;23;20255;-88
2023/07/17 13:19:24;;;;;;;4.88;2.00;;;;;;;;;;6189994;23;20028;-88
2023/07/17 13:21:50;;;;;;;6.03;2.10;;;;;;;;;;6165070;23;20023;-88
2023/07/17 13:24:19;;;;;;;5.47;2.03;;;;;;;;;;6191848;23;20019;-88
2023/07/17 13:26:45;;;;;;;4.38;2.08;;;;;;;;;;6190292;23;20182;-88
2023/07/17 13:29:14;;;;;;;8.20;2.28;;;;;;;;;;6166276;23;20001;-89
2023/07/17 13:31:59;;;;;;;7.57;2.38;;;;;;;;;;6196121;23;20020;-88
2023/07/17 13:34:29;;;;;;;6.28;1.95;;;;;;;;;;6166024;23;20004;-88
2023/07/17 13:36:56;;;;;;;3.85;1.58;;;;;;;;;;6189728;23;20008;-89
2023/07/17 13:39:40;;;;;;;3.20;1.80;;;;;;;;;;6219601;23;20004;-89
2023/07/17 13:42:06;;;;;;;4.88;1.77;;;;;;;;;;6191133;23;20121;-89
2023/07/17 13:44:32;;;;;;;8.40;2.75;;;;;;;;;;6189283;23;20012;-89
2023/07/17 13:46:59;;;;;;;7.85;2.33;;;;;;;;;;6190438;23;20020;-89
2023/07/17 13:49:29;;;;;;;6.65;2.30;;;;;;;;;;6168340;23;20040;-89
2023/07/17 13:51:55;;;;;;;3.15;1.58;;;;;;;;;;6192503;23;20008;-89
2023/07/17 13:54:22;;;;;;;5.88;1.73;;;;;;;;;;6193329;23;20008;-89
2023/07/17 13:56:48;;;;;;;4.72;2.00;;;;;;;;;;6184669;23;20011;-90
2023/07/17 13:59:16;;;;;;;7.90;2.40;;;;;;;;;;6160302;22;20012;-89
2023/07/17 14:01:42;;;;;;;6.40;2.15;;;;;;;;;;6183441;23;20031;-88
2023/07/17 14:04:11;;;;;;;8.63;1.80;;;;;;;;;;6186715;23;20476;-88
2023/07/17 14:06:40;;;;;;;5.88;2.40;;;;;;;;;;6187028;23;20020;-89
2023/07/17 14:09:16;;;;;;;4.65;2.08;;;;;;;;;;6194076;23;20012;-89
2023/07/17 14:11:43;;;;;;;2.53;1.42;;;;;;;;;;6197439;23;20009;-89
2023/07/17 14:14:17;;;;;;;6.28;1.70;;;;;;;;;;6218740;23;20058;-89
2023/07/17 14:16:43;;;;;;;4.53;1.90;;;;;;;;;;6218859;23;20027;-89
2023/07/17 14:19:09;;;;;;;2.88;1.63;;;;;;;;;;6193968;23;20445;-89
2023/07/17 14:21:41;;;;;;;5.20;2.40;;;;;;;;;;6194610;23;20036;-90
2023/07/17 14:24:11;;;;;;;5.35;2.25;;;;;;;;;;6195665;23;20012;-89
2023/07/17 14:26:37;;;;;;;6.32;2.47;;;;;;;;;;6246339;23;20004;-88
2023/07/17 14:29:04;;;;;;;3.42;2.22;;;;;;;;;;6194821;23;20469;-88
2023/07/17 14:31:30;;;;;;;4.50;1.95;;;;;;;;;;6220828;23;20012;-89
2023/07/17 14:33:56;;;;;;;7.55;2.17;;;;;;;;;;6246820;23;20004;-87
2023/07/17 14:36:23;;;;;;;7.88;2.10;;;;;;;;;;6219252;23;20406;-89
2023/07/17 14:38:51;;;;;;;5.10;1.83;;;;;;;;;;6197191;23;20024;-88
2023/07/17 14:41:18;;;;;;;4.78;2.00;;;;;;;;;;6198066;23;20012;-88
2023/07/17 14:43:58;;;;;;;5.90;1.80;;;;;;;;;;6200142;23;20012;-88
2023/07/17 14:46:28;;;;;;;6.95;2.28;;;;;;;;;;6225341;23;20008;-89
2023/07/17 14:48:55;;;;;;;3.67;1.65;;;;;;;;;;6198542;23;20012;-88
2023/07/17 14:51:21;;;;;;;5.20;2.17;;;;;;;;;;6221689;23;20004;-89
2023/07/17 14:53:53;;;;;;;8.15;2.22;;;;;;;;;;6196960;23;20008;-89
2023/07/17 14:56:19;;;;;;;6.60;2.30;;;;;;;;;;6221857;23;20004;-89